sensor_id;sensor_type;location;lat;lon;timestamp;P1;durP1;ratioP1;P2;durP2;ratioP2
81124;SDS011;72192;52.114;5.424;2024-03-23T00:51:46;23.02;;;7.25;;
81124;SDS011;72192;52.114;5.424;2024-03-23T00:54:16;20.13;;;6.83;;
81124;SDS011;72192;52.114;5.424;2024-03-23T00:56:43;21.20;;;6.00;;
81124;SDS011;72192;52.114;5.424;2024-03-23T00:59:11;21.95;;;6.40;;
81124;SDS011;72192;52.114;5.424;2024-03-23T01:04:23;20.43;;;6.77;;
81124;SDS011;72192;52.114;5.424;2024-03-23T01:06:52;22.23;;;6.30;;
81124;SDS011;72192;52.114;5.424;2024-03-23T01:09:19;22.45;;;7.05;;
81124;SDS011;72192;52.114;5.424;2024-03-23T01:14:28;19.75;;;6.75;;
81124;SDS011;72192;52.114;5.424;2024-03-23T01:17:00;18.40;;;6.65;;
81124;SDS011;72192;52.114;5.424;2024-03-23T01:24:44;23.00;;;6.80;;
81124;SDS011;72192;52.114;5.424;2024-03-23T01:29:55;19.33;;;6.80;;
81124;SDS011;72192;52.114;5.424;2024-03-23T01:32:39;23.35;;;6.35;;
81124;SDS011;72192;52.114;5.424;2024-03-23T01:40:18;20.38;;;6.45;;
81124;SDS011;72192;52.114;5.424;2024-03-23T01:42:56;16.58;;;5.95;;
81124;SDS011;72192;52.114;5.424;2024-03-23T01:45:24;22.00;;;6.43;;
81124;SDS011;72192;52.114;5.424;2024-03-23T01:50:27;20.10;;;6.55;;
81124;SDS011;72192;52.114;5.424;2024-03-23T01:53:29;20.30;;;6.00;;
81124;SDS011;72192;52.114;5.424;2024-03-23T01:55:59;22.35;;;7.30;;
81124;SDS011;72192;52.114;5.424;2024-03-23T02:01:22;19.57;;;6.67;;
81124;SDS011;72192;52.114;5.424;2024-03-23T02:06:32;19.60;;;6.97;;
81124;SDS011;72192;52.114;5.424;2024-03-23T02:14:19;19.63;;;6.18;;
81124;SDS011;72192;52.114;5.424;2024-03-23T02:16:48;19.30;;;6.10;;
81124;SDS011;72192;52.114;5.424;2024-03-23T02:19:15;19.50;;;6.55;;
81124;SDS011;72192;52.114;5.424;2024-03-23T02:21:43;21.25;;;6.95;;
81124;SDS011;72192;52.114;5.424;2024-03-23T02:26:47;18.48;;;5.95;;
81124;SDS011;72192;52.114;5.424;2024-03-23T02:38:16;22.55;;;5.95;;
81124;SDS011;72192;52.114;5.424;2024-03-23T02:40:45;15.93;;;6.27;;
81124;SDS011;72192;52.114;5.424;2024-03-23T02:43:14;16.27;;;5.95;;
81124;SDS011;72192;52.114;5.424;2024-03-23T02:45:47;18.50;;;7.30;;
81124;SDS011;72192;52.114;5.424;2024-03-23T02:48:16;19.65;;;5.90;;
81124;SDS011;72192;52.114;5.424;2024-03-23T02:50:43;17.90;;;5.90;;
81124;SDS011;72192;52.114;5.424;2024-03-23T02:53:12;21.25;;;6.03;;
81124;SDS011;72192;52.114;5.424;2024-03-23T02:55:41;19.60;;;6.30;;
81124;SDS011;72192;52.114;5.424;2024-03-23T02:58:16;20.63;;;6.90;;
81124;SDS011;72192;52.114;5.424;2024-03-23T03:06:09;19.45;;;6.25;;
81124;SDS011;72192;52.114;5.424;2024-03-23T03:08:36;18.40;;;6.30;;
81124;SDS011;72192;52.114;5.424;2024-03-23T03:20:59;16.30;;;6.63;;
81124;SDS011;72192;52.114;5.424;2024-03-23T03:29:05;17.38;;;7.00;;
81124;SDS011;72192;52.114;5.424;2024-03-23T03:38:16;16.58;;;5.47;;
81124;SDS011;72192;52.114;5.424;2024-03-23T03:40:44;16.15;;;6.10;;
81124;SDS011;72192;52.114;5.424;2024-03-23T03:53:02;16.73;;;6.50;;
81124;SDS011;72192;52.114;5.424;2024-03-23T03:55:32;18.53;;;6.03;;
81124;SDS011;72192;52.114;5.424;2024-03-23T04:03:37;14.65;;;5.38;;
81124;SDS011;72192;52.114;5.424;2024-03-23T04:06:19;18.23;;;6.80;;
81124;SDS011;72192;52.114;5.424;2024-03-23T04:11:23;19.53;;;5.97;;
81124;SDS011;72192;52.114;5.424;2024-03-23T04:13:52;13.43;;;4.80;;
81124;SDS011;72192;52.114;5.424;2024-03-23T04:18:58;15.15;;;4.85;;
81124;SDS011;72192;52.114;5.424;2024-03-23T04:21:26;14.80;;;4.90;;
81124;SDS011;72192;52.114;5.424;2024-03-23T04:23:58;20.95;;;6.05;;
81124;SDS011;72192;52.114;5.424;2024-03-23T04:26:25;18.63;;;4.93;;
81124;SDS011;72192;52.114;5.424;2024-03-23T04:28:55;15.35;;;5.45;;
81124;SDS011;72192;52.114;5.424;2024-03-23T04:33:58;14.50;;;4.53;;
81124;SDS011;72192;52.114;5.424;2024-03-23T04:36:24;15.63;;;5.50;;
81124;SDS011;72192;52.114;5.424;2024-03-23T04:38:53;15.20;;;5.03;;
81124;SDS011;72192;52.114;5.424;2024-03-23T04:48:59;12.95;;;4.20;;
81124;SDS011;72192;52.114;5.424;2024-03-23T04:54:25;12.57;;;3.97;;
81124;SDS011;72192;52.114;5.424;2024-03-23T04:56:56;14.57;;;4.32;;
81124;SDS011;72192;52.114;5.424;2024-03-23T04:59:23;15.25;;;4.15;;
81124;SDS011;72192;52.114;5.424;2024-03-23T05:01:52;18.55;;;4.30;;
81124;SDS011;72192;52.114;5.424;2024-03-23T05:04:26;14.77;;;3.58;;
81124;SDS011;72192;52.114;5.424;2024-03-23T05:06:53;11.80;;;3.60;;
81124;SDS011;72192;52.114;5.424;2024-03-23T05:09:21;9.85;;;4.00;;
81124;SDS011;72192;52.114;5.424;2024-03-23T05:11:48;8.80;;;3.40;;
81124;SDS011;72192;52.114;5.424;2024-03-23T05:14:16;11.23;;;3.30;;
81124;SDS011;72192;52.114;5.424;2024-03-23T05:16:42;11.10;;;3.15;;
81124;SDS011;72192;52.114;5.424;2024-03-23T05:19:09;9.18;;;3.03;;
81124;SDS011;72192;52.114;5.424;2024-03-23T05:21:37;10.77;;;3.85;;
81124;SDS011;72192;52.114;5.424;2024-03-23T05:24:03;12.48;;;3.10;;
81124;SDS011;72192;52.114;5.424;2024-03-23T05:26:29;12.35;;;3.28;;
81124;SDS011;72192;52.114;5.424;2024-03-23T05:28:56;15.52;;;3.28;;
81124;SDS011;72192;52.114;5.424;2024-03-23T05:31:27;14.20;;;3.17;;
81124;SDS011;72192;52.114;5.424;2024-03-23T05:33:55;11.00;;;3.33;;
81124;SDS011;72192;52.114;5.424;2024-03-23T05:36:21;12.00;;;2.60;;
81124;SDS011;72192;52.114;5.424;2024-03-23T05:38:49;12.05;;;2.70;;
81124;SDS011;72192;52.114;5.424;2024-03-23T05:41:17;9.52;;;3.28;;
81124;SDS011;72192;52.114;5.424;2024-03-23T05:43:43;10.35;;;2.83;;
81124;SDS011;72192;52.114;5.424;2024-03-23T05:46:09;11.23;;;3.00;;
81124;SDS011;72192;52.114;5.424;2024-03-23T05:51:05;7.82;;;2.92;;
81124;SDS011;72192;52.114;5.424;2024-03-23T05:53:34;10.73;;;2.78;;
81124;SDS011;72192;52.114;5.424;2024-03-23T05:56:02;10.10;;;2.50;;
81124;SDS011;72192;52.114;5.424;2024-03-23T05:58:30;7.00;;;2.40;;
81124;SDS011;72192;52.114;5.424;2024-03-23T06:00:58;7.75;;;2.40;;
81124;SDS011;72192;52.114;5.424;2024-03-23T06:03:39;7.25;;;2.15;;
81124;SDS011;72192;52.114;5.424;2024-03-23T06:06:08;9.13;;;2.10;;
81124;SDS011;72192;52.114;5.424;2024-03-23T06:11:32;5.85;;;2.10;;
81124;SDS011;72192;52.114;5.424;2024-03-23T06:14:08;5.03;;;2.43;;
81124;SDS011;72192;52.114;5.424;2024-03-23T06:16:38;7.75;;;1.83;;
81124;SDS011;72192;52.114;5.424;2024-03-23T06:19:17;7.20;;;1.90;;
81124;SDS011;72192;52.114;5.424;2024-03-23T06:21:52;12.38;;;1.80;;
81124;SDS011;72192;52.114;5.424;2024-03-23T06:24:23;15.82;;;2.90;;
81124;SDS011;72192;52.114;5.424;2024-03-23T06:26:53;7.05;;;1.58;;
81124;SDS011;72192;52.114;5.424;2024-03-23T06:29:20;9.80;;;1.70;;
81124;SDS011;72192;52.114;5.424;2024-03-23T06:31:54;12.23;;;2.45;;
81124;SDS011;72192;52.114;5.424;2024-03-23T06:34:25;11.33;;;2.47;;
81124;SDS011;72192;52.114;5.424;2024-03-23T06:36:52;8.38;;;1.77;;
81124;SDS011;72192;52.114;5.424;2024-03-23T06:44:27;6.80;;;1.65;;
81124;SDS011;72192;52.114;5.424;2024-03-23T06:46:55;5.93;;;1.70;;
81124;SDS011;72192;52.114;5.424;2024-03-23T06:49:23;7.00;;;2.20;;
81124;SDS011;72192;52.114;5.424;2024-03-23T06:51:50;5.68;;;1.60;;
81124;SDS011;72192;52.114;5.424;2024-03-23T07:04:32;8.95;;;2.00;;
81124;SDS011;72192;52.114;5.424;2024-03-23T07:07:05;8.77;;;1.75;;
81124;SDS011;72192;52.114;5.424;2024-03-23T07:09:34;7.63;;;1.70;;
81124;SDS011;72192;52.114;5.424;2024-03-23T07:12:07;10.05;;;2.00;;
81124;SDS011;72192;52.114;5.424;2024-03-23T07:14:37;9.07;;;1.97;;
81124;SDS011;72192;52.114;5.424;2024-03-23T07:17:14;9.90;;;2.20;;
81124;SDS011;72192;52.114;5.424;2024-03-23T07:19:47;6.70;;;1.88;;
81124;SDS011;72192;52.114;5.424;2024-03-23T07:22:16;9.65;;;2.15;;
81124;SDS011;72192;52.114;5.424;2024-03-23T07:24:45;6.75;;;1.98;;
81124;SDS011;72192;52.114;5.424;2024-03-23T07:35:01;9.53;;;2.07;;
81124;SDS011;72192;52.114;5.424;2024-03-23T07:37:32;6.20;;;1.90;;
81124;SDS011;72192;52.114;5.424;2024-03-23T07:40:04;10.20;;;3.30;;
81124;SDS011;72192;52.114;5.424;2024-03-23T07:43:02;7.45;;;2.25;;
81124;SDS011;72192;52.114;5.424;2024-03-23T07:45:32;6.55;;;2.15;;
81124;SDS011;72192;52.114;5.424;2024-03-23T07:50:34;9.23;;;1.95;;
81124;SDS011;72192;52.114;5.424;2024-03-23T07:53:04;6.97;;;1.90;;
81124;SDS011;72192;52.114;5.424;2024-03-23T07:55:31;9.43;;;1.92;;
81124;SDS011;72192;52.114;5.424;2024-03-23T07:58:00;10.05;;;2.40;;
81124;SDS011;72192;52.114;5.424;2024-03-23T08:00:29;5.30;;;1.75;;
81124;SDS011;72192;52.114;5.424;2024-03-23T08:03:00;6.40;;;2.00;;
81124;SDS011;72192;52.114;5.424;2024-03-23T08:05:32;7.35;;;2.00;;
81124;SDS011;72192;52.114;5.424;2024-03-23T08:08:03;6.47;;;1.50;;
81124;SDS011;72192;52.114;5.424;2024-03-23T08:10:32;6.63;;;1.60;;
81124;SDS011;72192;52.114;5.424;2024-03-23T08:13:48;9.65;;;1.20;;
81124;SDS011;72192;52.114;5.424;2024-03-23T08:16:17;10.95;;;2.00;;
81124;SDS011;72192;52.114;5.424;2024-03-23T08:21:41;7.03;;;1.80;;
81124;SDS011;72192;52.114;5.424;2024-03-23T08:24:11;13.50;;;2.00;;
81124;SDS011;72192;52.114;5.424;2024-03-23T08:31:39;10.18;;;1.90;;
81124;SDS011;72192;52.114;5.424;2024-03-23T08:34:06;6.97;;;1.92;;
81124;SDS011;72192;52.114;5.424;2024-03-23T08:39:12;4.93;;;1.98;;
81124;SDS011;72192;52.114;5.424;2024-03-23T08:41:43;2.30;;;0.80;;
81124;SDS011;72192;52.114;5.424;2024-03-23T08:44:12;8.15;;;1.60;;
81124;SDS011;72192;52.114;5.424;2024-03-23T08:46:42;7.57;;;1.73;;
81124;SDS011;72192;52.114;5.424;2024-03-23T08:49:11;6.40;;;1.70;;
81124;SDS011;72192;52.114;5.424;2024-03-23T08:54:49;3.80;;;1.00;;
81124;SDS011;72192;52.114;5.424;2024-03-23T08:57:22;6.07;;;1.30;;
81124;SDS011;72192;52.114;5.424;2024-03-23T09:03:03;6.40;;;1.27;;
81124;SDS011;72192;52.114;5.424;2024-03-23T09:05:38;8.15;;;1.50;;
81124;SDS011;72192;52.114;5.424;2024-03-23T09:08:09;5.85;;;1.40;;
81124;SDS011;72192;52.114;5.424;2024-03-23T09:16:00;5.60;;;1.33;;
81124;SDS011;72192;52.114;5.424;2024-03-23T09:18:31;9.20;;;1.55;;
81124;SDS011;72192;52.114;5.424;2024-03-23T09:21:01;5.60;;;1.50;;
81124;SDS011;72192;52.114;5.424;2024-03-23T09:23:29;10.30;;;1.53;;
81124;SDS011;72192;52.114;5.424;2024-03-23T09:31:04;4.47;;;1.30;;
81124;SDS011;72192;52.114;5.424;2024-03-23T09:33:33;8.20;;;1.35;;
81124;SDS011;72192;52.114;5.424;2024-03-23T09:43:11;7.50;;;1.50;;
81124;SDS011;72192;52.114;5.424;2024-03-23T09:45:48;5.57;;;1.52;;
81124;SDS011;72192;52.114;5.424;2024-03-23T09:48:17;9.13;;;1.70;;
81124;SDS011;72192;52.114;5.424;2024-03-23T09:50:45;9.10;;;1.33;;
81124;SDS011;72192;52.114;5.424;2024-03-23T09:53:13;2.80;;;0.80;;
81124;SDS011;72192;52.114;5.424;2024-03-23T09:58:16;5.30;;;1.17;;
81124;SDS011;72192;52.114;5.424;2024-03-23T10:00:54;5.68;;;1.40;;
81124;SDS011;72192;52.114;5.424;2024-03-23T10:03:43;7.40;;;1.60;;
81124;SDS011;72192;52.114;5.424;2024-03-23T10:06:13;6.30;;;1.65;;
81124;SDS011;72192;52.114;5.424;2024-03-23T10:11:15;6.05;;;1.27;;
81124;SDS011;72192;52.114;5.424;2024-03-23T10:13:43;7.00;;;1.85;;
81124;SDS011;72192;52.114;5.424;2024-03-23T10:16:20;9.55;;;1.65;;
81124;SDS011;72192;52.114;5.424;2024-03-23T10:18:55;5.95;;;1.65;;
81124;SDS011;72192;52.114;5.424;2024-03-23T10:21:25;7.70;;;1.40;;
81124;SDS011;72192;52.114;5.424;2024-03-23T10:31:36;6.53;;;1.55;;
81124;SDS011;72192;52.114;5.424;2024-03-23T10:34:12;5.60;;;0.90;;
81124;SDS011;72192;52.114;5.424;2024-03-23T10:36:40;5.60;;;1.23;;
81124;SDS011;72192;52.114;5.424;2024-03-23T10:42:55;4.85;;;0.90;;
81124;SDS011;72192;52.114;5.424;2024-03-23T10:45:28;3.90;;;1.10;;
81124;SDS011;72192;52.114;5.424;2024-03-23T10:57:12;6.07;;;1.10;;
81124;SDS011;72192;52.114;5.424;2024-03-23T10:59:47;3.40;;;0.60;;
81124;SDS011;72192;52.114;5.424;2024-03-23T11:02:41;4.45;;;0.80;;
81124;SDS011;72192;52.114;5.424;2024-03-23T11:05:29;5.83;;;0.97;;
81124;SDS011;72192;52.114;5.424;2024-03-23T11:08:03;8.10;;;1.30;;
81124;SDS011;72192;52.114;5.424;2024-03-23T11:10:34;4.22;;;0.65;;
81124;SDS011;72192;52.114;5.424;2024-03-23T11:13:21;6.00;;;1.20;;
81124;SDS011;72192;52.114;5.424;2024-03-23T11:15:52;4.22;;;1.08;;
81124;SDS011;72192;52.114;5.424;2024-03-23T11:18:22;5.60;;;1.60;;
81124;SDS011;72192;52.114;5.424;2024-03-23T11:20:51;4.60;;;1.40;;
81124;SDS011;72192;52.114;5.424;2024-03-23T11:23:27;3.53;;;1.05;;
81124;SDS011;72192;52.114;5.424;2024-03-23T11:25:58;5.10;;;1.05;;
81124;SDS011;72192;52.114;5.424;2024-03-23T11:28:28;4.28;;;1.23;;
81124;SDS011;72192;52.114;5.424;2024-03-23T11:34:26;7.20;;;1.30;;
81124;SDS011;72192;52.114;5.424;2024-03-23T11:37:04;8.45;;;1.70;;
81124;SDS011;72192;52.114;5.424;2024-03-23T11:45:46;3.10;;;1.00;;
81124;SDS011;72192;52.114;5.424;2024-03-23T11:48:19;5.30;;;1.10;;
81124;SDS011;72192;52.114;5.424;2024-03-23T11:53:35;7.68;;;1.50;;
81124;SDS011;72192;52.114;5.424;2024-03-23T12:01:09;6.90;;;1.50;;
81124;SDS011;72192;52.114;5.424;2024-03-23T12:03:39;6.55;;;1.30;;
81124;SDS011;72192;52.114;5.424;2024-03-23T12:06:11;2.87;;;1.00;;
81124;SDS011;72192;52.114;5.424;2024-03-23T12:08:49;4.88;;;1.30;;
81124;SDS011;72192;52.114;5.424;2024-03-23T12:16:42;8.40;;;1.90;;
81124;SDS011;72192;52.114;5.424;2024-03-23T12:33:32;2.95;;;0.70;;
81124;SDS011;72192;52.114;5.424;2024-03-23T12:36:01;4.10;;;0.90;;
81124;SDS011;72192;52.114;5.424;2024-03-23T12:38:31;5.72;;;1.63;;
81124;SDS011;72192;52.114;5.424;2024-03-23T12:45:16;3.05;;;1.00;;
81124;SDS011;72192;52.114;5.424;2024-03-23T12:47:43;7.93;;;1.30;;
81124;SDS011;72192;52.114;5.424;2024-03-23T12:57:41;5.18;;;1.30;;
81124;SDS011;72192;52.114;5.424;2024-03-23T13:03:56;7.38;;;1.58;;
81124;SDS011;72192;52.114;5.424;2024-03-23T13:12:06;5.05;;;1.13;;
81124;SDS011;72192;52.114;5.424;2024-03-23T13:14:34;6.17;;;1.20;;
81124;SDS011;72192;52.114;5.424;2024-03-23T13:17:01;7.53;;;1.52;;
81124;SDS011;72192;52.114;5.424;2024-03-23T13:19:31;3.97;;;1.03;;
81124;SDS011;72192;52.114;5.424;2024-03-23T13:22:01;5.43;;;1.05;;
81124;SDS011;72192;52.114;5.424;2024-03-23T13:24:29;5.77;;;1.20;;
81124;SDS011;72192;52.114;5.424;2024-03-23T13:26:58;4.57;;;1.17;;
81124;SDS011;72192;52.114;5.424;2024-03-23T13:29:26;3.60;;;0.80;;
81124;SDS011;72192;52.114;5.424;2024-03-23T13:31:53;2.80;;;0.60;;
81124;SDS011;72192;52.114;5.424;2024-03-23T13:47:49;2.03;;;0.75;;
81124;SDS011;72192;52.114;5.424;2024-03-23T13:58:55;5.25;;;0.90;;
81124;SDS011;72192;52.114;5.424;2024-03-23T14:03:57;4.65;;;1.02;;
81124;SDS011;72192;52.114;5.424;2024-03-23T14:06:26;4.47;;;1.00;;
81124;SDS011;72192;52.114;5.424;2024-03-23T14:08:55;4.85;;;1.10;;
81124;SDS011;72192;52.114;5.424;2024-03-23T14:11:27;8.55;;;1.35;;
81124;SDS011;72192;52.114;5.424;2024-03-23T14:14:04;4.37;;;1.17;;
81124;SDS011;72192;52.114;5.424;2024-03-23T14:19:04;7.75;;;1.55;;
81124;SDS011;72192;52.114;5.424;2024-03-23T14:21:34;5.45;;;1.20;;
81124;SDS011;72192;52.114;5.424;2024-03-23T14:24:06;8.80;;;1.50;;
81124;SDS011;72192;52.114;5.424;2024-03-23T14:26:42;6.45;;;1.40;;
81124;SDS011;72192;52.114;5.424;2024-03-23T14:29:14;6.55;;;1.13;;
81124;SDS011;72192;52.114;5.424;2024-03-23T14:31:42;5.25;;;1.30;;
81124;SDS011;72192;52.114;5.424;2024-03-23T14:34:10;5.17;;;1.00;;
81124;SDS011;72192;52.114;5.424;2024-03-23T14:36:37;8.32;;;1.35;;
81124;SDS011;72192;52.114;5.424;2024-03-23T14:41:56;5.85;;;1.20;;
81124;SDS011;72192;52.114;5.424;2024-03-23T14:44:25;6.10;;;1.40;;
81124;SDS011;72192;52.114;5.424;2024-03-23T14:46:53;2.87;;;1.40;;
81124;SDS011;72192;52.114;5.424;2024-03-23T14:51:57;5.55;;;1.20;;
81124;SDS011;72192;52.114;5.424;2024-03-23T14:54:24;5.47;;;1.20;;
81124;SDS011;72192;52.114;5.424;2024-03-23T14:56:53;5.10;;;1.50;;
81124;SDS011;72192;52.114;5.424;2024-03-23T15:04:46;4.00;;;1.10;;
81124;SDS011;72192;52.114;5.424;2024-03-23T15:07:14;3.45;;;1.02;;
81124;SDS011;72192;52.114;5.424;2024-03-23T15:09:41;4.18;;;1.33;;
81124;SDS011;72192;52.114;5.424;2024-03-23T15:17:32;7.25;;;1.20;;
81124;SDS011;72192;52.114;5.424;2024-03-23T15:20:02;4.25;;;0.95;;
81124;SDS011;72192;52.114;5.424;2024-03-23T15:22:35;4.57;;;1.00;;
81124;SDS011;72192;52.114;5.424;2024-03-23T15:25:02;5.30;;;1.10;;
81124;SDS011;72192;52.114;5.424;2024-03-23T15:27:36;3.63;;;0.80;;
81124;SDS011;72192;52.114;5.424;2024-03-23T15:32:52;3.65;;;1.40;;
81124;SDS011;72192;52.114;5.424;2024-03-23T15:41:02;6.33;;;1.80;;
81124;SDS011;72192;52.114;5.424;2024-03-23T15:58:42;4.60;;;1.00;;
81124;SDS011;72192;52.114;5.424;2024-03-23T16:01:10;6.32;;;1.30;;
81124;SDS011;72192;52.114;5.424;2024-03-23T16:03:39;3.40;;;1.08;;
81124;SDS011;72192;52.114;5.424;2024-03-23T16:06:12;5.60;;;1.13;;
81124;SDS011;72192;52.114;5.424;2024-03-23T16:16:25;4.25;;;1.20;;
81124;SDS011;72192;52.114;5.424;2024-03-23T16:18:54;4.68;;;1.50;;
81124;SDS011;72192;52.114;5.424;2024-03-23T16:21:21;5.33;;;1.20;;
81124;SDS011;72192;52.114;5.424;2024-03-23T16:23:52;2.40;;;0.63;;
81124;SDS011;72192;52.114;5.424;2024-03-23T16:26:25;5.60;;;1.20;;
81124;SDS011;72192;52.114;5.424;2024-03-23T16:28:58;5.60;;;1.13;;
81124;SDS011;72192;52.114;5.424;2024-03-23T16:31:25;5.50;;;1.60;;
81124;SDS011;72192;52.114;5.424;2024-03-23T16:36:40;5.50;;;0.90;;
81124;SDS011;72192;52.114;5.424;2024-03-23T16:39:09;4.80;;;1.00;;
81124;SDS011;72192;52.114;5.424;2024-03-23T16:41:38;6.00;;;1.40;;
81124;SDS011;72192;52.114;5.424;2024-03-23T16:44:20;5.40;;;1.40;;
81124;SDS011;72192;52.114;5.424;2024-03-23T16:49:25;5.65;;;1.50;;
81124;SDS011;72192;52.114;5.424;2024-03-23T16:51:58;1.93;;;0.80;;
81124;SDS011;72192;52.114;5.424;2024-03-23T16:54:29;3.97;;;0.88;;
81124;SDS011;72192;52.114;5.424;2024-03-23T16:57:08;3.47;;;1.00;;
81124;SDS011;72192;52.114;5.424;2024-03-23T16:59:35;7.20;;;0.85;;
81124;SDS011;72192;52.114;5.424;2024-03-23T17:02:04;1.15;;;0.35;;
81124;SDS011;72192;52.114;5.424;2024-03-23T17:04:33;1.88;;;0.93;;
81124;SDS011;72192;52.114;5.424;2024-03-23T17:09:47;2.40;;;0.60;;
81124;SDS011;72192;52.114;5.424;2024-03-23T17:12:16;2.05;;;0.60;;
81124;SDS011;72192;52.114;5.424;2024-03-23T17:17:22;2.15;;;0.80;;
81124;SDS011;72192;52.114;5.424;2024-03-23T17:19:49;2.80;;;0.95;;
81124;SDS011;72192;52.114;5.424;2024-03-23T17:22:17;2.70;;;0.70;;
81124;SDS011;72192;52.114;5.424;2024-03-23T17:24:46;2.20;;;0.90;;
81124;SDS011;72192;52.114;5.424;2024-03-23T17:27:19;1.75;;;1.20;;
81124;SDS011;72192;52.114;5.424;2024-03-23T17:35:49;2.42;;;0.70;;
81124;SDS011;72192;52.114;5.424;2024-03-23T17:40:56;2.17;;;0.70;;
81124;SDS011;72192;52.114;5.424;2024-03-23T17:45:57;3.40;;;1.30;;
81124;SDS011;72192;52.114;5.424;2024-03-23T17:48:25;3.97;;;0.95;;
81124;SDS011;72192;52.114;5.424;2024-03-23T17:51:00;5.30;;;1.60;;
81124;SDS011;72192;52.114;5.424;2024-03-23T17:53:38;3.78;;;1.00;;
81124;SDS011;72192;52.114;5.424;2024-03-23T17:56:08;4.30;;;1.03;;
81124;SDS011;72192;52.114;5.424;2024-03-23T17:58:36;3.58;;;1.35;;
81124;SDS011;72192;52.114;5.424;2024-03-23T18:01:07;2.70;;;0.90;;
81124;SDS011;72192;52.114;5.424;2024-03-23T18:06:09;3.70;;;1.15;;
81124;SDS011;72192;52.114;5.424;2024-03-23T18:08:40;2.97;;;1.10;;
81124;SDS011;72192;52.114;5.424;2024-03-23T18:11:10;2.60;;;1.10;;
81124;SDS011;72192;52.114;5.424;2024-03-23T18:13:40;4.20;;;1.23;;
81124;SDS011;72192;52.114;5.424;2024-03-23T18:18:35;2.75;;;1.20;;
81124;SDS011;72192;52.114;5.424;2024-03-23T18:21:03;7.00;;;1.70;;
81124;SDS011;72192;52.114;5.424;2024-03-23T18:23:37;5.90;;;1.53;;
81124;SDS011;72192;52.114;5.424;2024-03-23T18:36:35;4.63;;;1.60;;
81124;SDS011;72192;52.114;5.424;2024-03-23T18:44:20;4.72;;;1.90;;
81124;SDS011;72192;52.114;5.424;2024-03-23T18:47:03;5.40;;;1.83;;
81124;SDS011;72192;52.114;5.424;2024-03-23T18:49:33;4.63;;;1.77;;
81124;SDS011;72192;52.114;5.424;2024-03-23T18:59:46;7.82;;;1.67;;
81124;SDS011;72192;52.114;5.424;2024-03-23T19:02:17;4.33;;;1.50;;
81124;SDS011;72192;52.114;5.424;2024-03-23T19:04:56;5.93;;;2.03;;
81124;SDS011;72192;52.114;5.424;2024-03-23T19:07:52;5.78;;;1.63;;
81124;SDS011;72192;52.114;5.424;2024-03-23T19:10:21;6.83;;;1.90;;
81124;SDS011;72192;52.114;5.424;2024-03-23T19:12:48;5.47;;;1.83;;
81124;SDS011;72192;52.114;5.424;2024-03-23T19:15:16;6.05;;;1.60;;
81124;SDS011;72192;52.114;5.424;2024-03-23T19:17:45;5.10;;;1.70;;
81124;SDS011;72192;52.114;5.424;2024-03-23T19:20:12;6.77;;;1.50;;
81124;SDS011;72192;52.114;5.424;2024-03-23T19:22:42;7.97;;;1.93;;
81124;SDS011;72192;52.114;5.424;2024-03-23T19:25:14;3.35;;;1.30;;
81124;SDS011;72192;52.114;5.424;2024-03-23T19:40:56;7.03;;;1.95;;
81124;SDS011;72192;52.114;5.424;2024-03-23T19:43:30;6.17;;;1.80;;
81124;SDS011;72192;52.114;5.424;2024-03-23T19:53:46;8.10;;;2.07;;
81124;SDS011;72192;52.114;5.424;2024-03-23T20:06:48;5.35;;;1.70;;
81124;SDS011;72192;52.114;5.424;2024-03-23T20:09:15;5.05;;;1.70;;
81124;SDS011;72192;52.114;5.424;2024-03-23T20:11:45;5.45;;;1.80;;
81124;SDS011;72192;52.114;5.424;2024-03-23T20:14:14;6.77;;;2.00;;
81124;SDS011;72192;52.114;5.424;2024-03-23T20:16:44;4.25;;;1.55;;
81124;SDS011;72192;52.114;5.424;2024-03-23T20:19:11;7.20;;;1.90;;
81124;SDS011;72192;52.114;5.424;2024-03-23T20:21:38;5.40;;;1.30;;
81124;SDS011;72192;52.114;5.424;2024-03-23T20:24:07;5.25;;;1.60;;
81124;SDS011;72192;52.114;5.424;2024-03-23T20:26:42;6.20;;;1.35;;
81124;SDS011;72192;52.114;5.424;2024-03-23T20:34:22;3.35;;;1.05;;
81124;SDS011;72192;52.114;5.424;2024-03-23T20:36:49;7.20;;;1.40;;
81124;SDS011;72192;52.114;5.424;2024-03-23T20:39:17;3.00;;;1.20;;
81124;SDS011;72192;52.114;5.424;2024-03-23T20:41:44;6.20;;;1.83;;
81124;SDS011;72192;52.114;5.424;2024-03-23T20:44:11;6.40;;;1.55;;
81124;SDS011;72192;52.114;5.424;2024-03-23T20:46:41;7.80;;;1.20;;
81124;SDS011;72192;52.114;5.424;2024-03-23T20:49:09;8.20;;;1.88;;
81124;SDS011;72192;52.114;5.424;2024-03-23T20:51:37;3.00;;;1.00;;
81124;SDS011;72192;52.114;5.424;2024-03-23T20:59:20;2.90;;;1.08;;
81124;SDS011;72192;52.114;5.424;2024-03-23T21:01:49;4.15;;;1.40;;
81124;SDS011;72192;52.114;5.424;2024-03-23T21:04:17;4.83;;;1.37;;
81124;SDS011;72192;52.114;5.424;2024-03-23T21:06:49;2.40;;;1.10;;
81124;SDS011;72192;52.114;5.424;2024-03-23T21:09:16;3.60;;;1.27;;
81124;SDS011;72192;52.114;5.424;2024-03-23T21:11:44;1.67;;;0.82;;
81124;SDS011;72192;52.114;5.424;2024-03-23T21:14:13;5.10;;;1.40;;
81124;SDS011;72192;52.114;5.424;2024-03-23T21:16:40;4.05;;;1.90;;
81124;SDS011;72192;52.114;5.424;2024-03-23T21:19:11;2.27;;;0.90;;
81124;SDS011;72192;52.114;5.424;2024-03-23T21:21:39;4.97;;;1.30;;
81124;SDS011;72192;52.114;5.424;2024-03-23T21:24:09;3.47;;;1.17;;
81124;SDS011;72192;52.114;5.424;2024-03-23T21:31:38;1.30;;;0.75;;
81124;SDS011;72192;52.114;5.424;2024-03-23T21:34:05;2.95;;;1.42;;
81124;SDS011;72192;52.114;5.424;2024-03-23T21:36:34;4.10;;;0.90;;
81124;SDS011;72192;52.114;5.424;2024-03-23T21:39:04;2.30;;;0.80;;
81124;SDS011;72192;52.114;5.424;2024-03-23T21:46:55;4.53;;;1.30;;
81124;SDS011;72192;52.114;5.424;2024-03-23T21:52:19;3.60;;;1.38;;
81124;SDS011;72192;52.114;5.424;2024-03-23T21:54:54;5.50;;;1.60;;
81124;SDS011;72192;52.114;5.424;2024-03-23T21:57:46;7.15;;;1.20;;
81124;SDS011;72192;52.114;5.424;2024-03-23T22:00:18;3.60;;;1.50;;
81124;SDS011;72192;52.114;5.424;2024-03-23T22:02:45;4.63;;;1.73;;
81124;SDS011;72192;52.114;5.424;2024-03-23T22:15:36;5.20;;;1.70;;
81124;SDS011;72192;52.114;5.424;2024-03-23T22:18:06;1.65;;;0.85;;
81124;SDS011;72192;52.114;5.424;2024-03-23T22:20:33;6.20;;;1.70;;
81124;SDS011;72192;52.114;5.424;2024-03-23T22:25:46;2.75;;;1.10;;
81124;SDS011;72192;52.114;5.424;2024-03-23T22:28:21;4.00;;;2.00;;
81124;SDS011;72192;52.114;5.424;2024-03-23T22:30:55;8.53;;;2.30;;
81124;SDS011;72192;52.114;5.424;2024-03-23T22:33:23;7.40;;;3.15;;
81124;SDS011;72192;52.114;5.424;2024-03-23T22:35:55;7.28;;;2.42;;
81124;SDS011;72192;52.114;5.424;2024-03-23T22:38:28;6.80;;;2.20;;
81124;SDS011;72192;52.114;5.424;2024-03-23T22:43:59;4.15;;;1.80;;
81124;SDS011;72192;52.114;5.424;2024-03-23T22:46:26;5.25;;;1.85;;
81124;SDS011;72192;52.114;5.424;2024-03-23T22:48:53;10.40;;;3.17;;
81124;SDS011;72192;52.114;5.424;2024-03-23T22:51:20;6.07;;;1.73;;
81124;SDS011;72192;52.114;5.424;2024-03-23T22:53:49;1.85;;;1.15;;
81124;SDS011;72192;52.114;5.424;2024-03-23T22:56:16;6.93;;;1.50;;
81124;SDS011;72192;52.114;5.424;2024-03-23T23:01:20;8.85;;;2.05;;
81124;SDS011;72192;52.114;5.424;2024-03-23T23:06:23;5.70;;;2.20;;
81124;SDS011;72192;52.114;5.424;2024-03-23T23:08:52;2.60;;;1.25;;
81124;SDS011;72192;52.114;5.424;2024-03-23T23:11:21;8.40;;;2.00;;
81124;SDS011;72192;52.114;5.424;2024-03-23T23:16:31;2.40;;;1.50;;
81124;SDS011;72192;52.114;5.424;2024-03-23T23:19:02;5.85;;;1.55;;
81124;SDS011;72192;52.114;5.424;2024-03-23T23:21:31;3.13;;;1.25;;
81124;SDS011;72192;52.114;5.424;2024-03-23T23:26:36;5.70;;;2.00;;
81124;SDS011;72192;52.114;5.424;2024-03-23T23:29:12;5.45;;;1.60;;
81124;SDS011;72192;52.114;5.424;2024-03-23T23:39:32;1.90;;;0.80;;
81124;SDS011;72192;52.114;5.424;2024-03-23T23:46:59;1.75;;;0.95;;
81124;SDS011;72192;52.114;5.424;2024-03-23T23:49:28;4.15;;;1.60;;